Weather History for Three Rivers, MI

Change the Weather History Date:

Monday, August 26, 2013

  Actual Average Record
Temperature  
Mean Temperature 74 °F -  
Max Temperature 86 °F 81 °F 100 °F (1948)
Min Temperature 63 °F 57 °F 43 °F (1964)
Cooling Degree Days 10    
Growing Degree Days 24 (Base 50)    
Moisture  
Dew Point 66 °F    
Average Humidity 73    
Maximum Humidity 88    
Minimum Humidity 56    
Precipitation  
Precipitation 0.00 in - - ()
Sea Level Pressure  
Sea Level Pressure 30.12 in    
Wind  
Wind Speed 5 mph (WSW)    
Max Wind Speed 12 mph    
Max Gust Speed 17 mph    
Visibility 10 miles    
Events      
Averages and records for this station are not official NWS values.
T = Trace of Precipitation, MM = Missing Value Source: NWS Daily Summary

Daily Weather History Graph

Daily Weather History Graph

Search for Another Location

Airport:

Trip Planner

Search our weather history database for the weather conditions in past years. The results will help you decide how hot, cold, wet, or windy it might be!

Date:

Astronomy

Aug. 26, 2013 Rise Set
Actual Time 7:02 AM EDT 8:25 PM EDT
Civil Twilight 6:32 AM EDT 8:54 PM EDT
Nautical Twilight 5:57 AM EDT 9:29 PM EDT
Astronomical Twilight 5:20 AM EDT 10:06 PM EDT
Moon 11:28 PM EDT (8/26) 1:09 PM EDT (8/26)
Length of Visible Light 14h 21m
Length of Day
13h 23m
Waning Gibbous, 67% of the Moon is Illuminated
Aug 26
Waning Gibbous
Aug 28
Last Quarter
Sep 5
New
Sep 12
First Quarter
Sep 19
Full

Hourly Weather History & Observations

Time (EDT) Temp. Heat Index Dew Point Humidity Pressure Visibility Wind Dir Wind Speed Gust Speed Precip Events Conditions
12:15 AM 68.5 °F - 63.0 °F 82% 30.21 in 10.0 mi SSW 4.6 mph - N/A   Clear
12:35 AM 68.5 °F - 63.1 °F 83% 30.21 in 10.0 mi SW 4.6 mph - N/A   Clear
12:54 AM 68.2 °F - 63.0 °F 83% 30.21 in 10.0 mi SW 4.6 mph - N/A   Clear
1:15 AM 68.7 °F - 63.1 °F 82% 30.21 in 10.0 mi SW 4.6 mph - N/A   Clear
1:35 AM 68.9 °F - 62.8 °F 81% 30.20 in 10.0 mi SW 4.6 mph - N/A   Clear
1:54 AM 67.6 °F - 62.6 °F 84% 30.18 in 10.0 mi SSW 4.6 mph - N/A   Clear
2:15 AM 67.1 °F - 62.4 °F 85% 30.17 in 10.0 mi SSW 4.6 mph - N/A   Clear
2:35 AM 67.5 °F - 62.2 °F 83% 30.17 in 10.0 mi SW 4.6 mph - N/A   Clear
2:54 AM 67.5 °F - 62.2 °F 83% 30.16 in 10.0 mi SW 4.6 mph - N/A   Clear
3:15 AM 67.5 °F - 62.1 °F 83% 30.16 in 10.0 mi SW 4.6 mph - N/A   Clear
3:34 AM 67.5 °F - 61.3 °F 81% 30.16 in 10.0 mi SSW 4.6 mph - N/A   Clear
3:55 AM 65.8 °F - 61.2 °F 85% 30.16 in 10.0 mi SW 4.6 mph - N/A   Clear
4:15 AM 66.2 °F - 61.0 °F 83% 30.17 in 10.0 mi SW 4.6 mph - N/A   Clear
4:34 AM 65.7 °F - 60.8 °F 84% 30.17 in 10.0 mi SSW 4.6 mph - N/A   Clear
4:55 AM 67.1 °F - 61.2 °F 81% 30.18 in 10.0 mi Calm Calm - N/A   Clear
5:15 AM 65.7 °F - 60.8 °F 84% 30.17 in 10.0 mi Calm Calm - N/A   Clear
5:35 AM 64.0 °F - 59.9 °F 86% 30.16 in 10.0 mi South 4.6 mph - N/A   Clear
5:55 AM 65.1 °F - 60.8 °F 86% 30.17 in 10.0 mi Calm Calm - N/A   Clear
6:14 AM 65.1 °F - 60.3 °F 84% 30.17 in 10.0 mi SW 4.6 mph - N/A   Clear
6:35 AM 64.4 °F - 60.6 °F 88% 30.17 in 10.0 mi Calm Calm - N/A   Clear
6:55 AM 63.9 °F - 59.9 °F 87% 30.17 in 10.0 mi NNW 3.5 mph - N/A   Clear
7:14 AM 63.9 °F - 60.3 °F 88% 30.17 in 7.0 mi North 3.5 mph - N/A   Clear
7:35 AM 64.8 °F - 60.6 °F 86% 30.18 in 10.0 mi SSW 3.5 mph - N/A   Clear
7:54 AM 64.2 °F - 60.6 °F 88% 30.18 in 7.0 mi Calm Calm - N/A   Clear
8:15 AM 65.3 °F - 61.3 °F 87% 30.19 in 7.0 mi Calm Calm - N/A   Clear
8:35 AM 67.5 °F - 63.0 °F 85% 30.19 in 10.0 mi WNW 3.5 mph - N/A   Clear
8:54 AM 69.1 °F - 62.8 °F 80% 30.18 in 10.0 mi WSW 3.5 mph - N/A   Clear
9:15 AM 71.4 °F - 63.3 °F 76% 30.18 in 10.0 mi West 4.6 mph - N/A   Clear
9:35 AM 73.8 °F - 64.0 °F 72% 30.17 in 10.0 mi WSW 5.8 mph - N/A   Clear
9:54 AM 74.5 °F - 63.7 °F 69% 30.17 in 10.0 mi SW 3.5 mph - N/A   Clear
10:15 AM 75.4 °F - 64.6 °F 69% 30.17 in 10.0 mi Calm Calm - N/A   Clear
10:35 AM 77.2 °F - 65.3 °F 67% 30.17 in 10.0 mi West 4.6 mph - N/A   Clear
10:54 AM 77.9 °F - 65.7 °F 66% 30.17 in 10.0 mi SW 5.8 mph - N/A   Clear
11:15 AM 81.1 °F 83.7 °F 67.5 °F 63% 30.17 in 10.0 mi West 4.6 mph - N/A   Clear
11:35 AM 82.0 °F 84.5 °F 67.1 °F 60% 30.16 in 10.0 mi West 9.2 mph - N/A   Clear
11:55 AM 82.2 °F 84.9 °F 67.5 °F 61% 30.16 in 10.0 mi West 6.9 mph - N/A   Clear
12:15 PM 83.8 °F 87.0 °F 68.0 °F 59% 30.15 in 10.0 mi West 9.2 mph - N/A   Clear
12:34 PM 84.2 °F 87.3 °F 68.0 °F 58% 30.14 in 10.0 mi WSW 6.9 mph - N/A   Clear
12:55 PM 84.2 °F 87.1 °F 67.5 °F 57% 30.14 in 10.0 mi WSW 8.1 mph - N/A   Clear
1:15 PM 84.2 °F 87.3 °F 68.2 °F 58% 30.13 in 10.0 mi West 9.2 mph - N/A   Scattered Clouds
1:34 PM 84.2 °F 88.1 °F 69.3 °F 61% 30.13 in 10.0 mi West 6.9 mph - N/A   Scattered Clouds
1:55 PM 85.5 °F 89.8 °F 69.8 °F 59% 30.12 in 10.0 mi West 9.2 mph - N/A   Clear
2:15 PM 86.9 °F 91.7 °F 70.2 °F 57% 30.11 in 10.0 mi West 8.1 mph - N/A   Clear
2:34 PM 86.0 °F 90.4 °F 69.8 °F 58% 30.10 in 10.0 mi West 11.5 mph 16.1 mph N/A   Clear
2:55 PM 85.1 °F 89.1 °F 69.4 °F 59% 30.08 in 10.0 mi WSW 9.2 mph 16.1 mph N/A   Clear
3:15 PM 86.0 °F 90.1 °F 69.3 °F 57% 30.07 in 10.0 mi WSW 10.4 mph - N/A   Clear
3:34 PM 86.9 °F 91.3 °F 69.3 °F 56% 30.06 in 10.0 mi West 9.2 mph 16.1 mph N/A   Clear
3:55 PM 85.1 °F 88.8 °F 68.9 °F 58% 30.04 in 10.0 mi WSW 6.9 mph 17.3 mph N/A   Clear
4:15 PM 85.3 °F 89.8 °F 70.0 °F 60% 30.06 in 10.0 mi WSW 5.8 mph - N/A   Clear
4:35 PM 85.5 °F 90.1 °F 70.2 °F 60% 30.05 in 10.0 mi WSW 8.1 mph - N/A   Clear
4:55 PM 85.5 °F 90.8 °F 70.9 °F 62% 30.05 in 10.0 mi West 4.6 mph - N/A   Clear
5:14 PM 86.0 °F 92.6 °F 72.3 °F 64% 30.05 in 10.0 mi WSW 6.9 mph - N/A   Clear
5:35 PM 85.6 °F 91.1 °F 71.4 °F 62% 30.05 in 10.0 mi West 8.1 mph - N/A   Clear
5:55 PM 85.3 °F 90.8 °F 71.2 °F 63% 30.05 in 10.0 mi WSW 6.9 mph - N/A   Clear
6:14 PM 85.6 °F 91.5 °F 71.8 °F 63% 30.05 in 10.0 mi West 4.6 mph - N/A   Clear
6:35 PM 85.1 °F 90.4 °F 71.2 °F 63% 30.05 in 10.0 mi West 6.9 mph - N/A   Clear
6:55 PM 84.9 °F 90.4 °F 71.4 °F 64% 30.05 in 10.0 mi West 4.6 mph - N/A   Clear
7:14 PM 83.7 °F 89.2 °F 72.0 °F 68% 30.05 in 10.0 mi WSW 8.1 mph - N/A   Clear
7:35 PM 83.7 °F 88.6 °F 71.1 °F 66% 30.05 in 10.0 mi WSW 5.8 mph - N/A   Clear
7:55 PM 82.6 °F 87.1 °F 70.9 °F 68% 30.05 in 10.0 mi WSW 3.5 mph - N/A   Clear
8:14 PM 80.8 °F 84.7 °F 71.2 °F 73% 30.05 in 10.0 mi NW 5.8 mph - N/A   Clear
8:35 PM 79.7 °F - 71.2 °F 75% 30.04 in 10.0 mi SW 5.8 mph - N/A   Clear
8:55 PM 79.0 °F - 70.7 °F 76% 30.04 in 10.0 mi SW 5.8 mph - N/A   Clear
9:15 PM 77.7 °F - 70.3 °F 78% 30.04 in 10.0 mi SW 4.6 mph - N/A   Clear
9:35 PM 77.5 °F - 70.0 °F 77% 30.04 in 10.0 mi SW 5.8 mph - N/A   Clear
9:54 PM 76.6 °F - 69.6 °F 79% 30.04 in 10.0 mi SW 4.6 mph - N/A   Clear
10:15 PM 76.5 °F - 69.4 °F 79% 30.04 in 10.0 mi SW 4.6 mph - N/A   Scattered Clouds
10:35 PM 76.1 °F - 69.3 °F 79% 30.04 in 10.0 mi SW 3.5 mph - N/A   Scattered Clouds
10:54 PM 76.1 °F - 69.1 °F 79% 30.04 in 10.0 mi SW 3.5 mph - N/A   Clear
11:15 PM 75.2 °F - 69.1 °F 81% 30.04 in 10.0 mi Calm Calm - N/A   Clear
11:35 PM 76.1 °F - 69.1 °F 79% 30.03 in 10.0 mi SW 4.6 mph - N/A   Clear
11:54 PM 76.5 °F - 69.3 °F 78% 30.03 in 10.0 mi WSW 3.5 mph - N/A   Clear